sensor_id;sensor_type;location;lat;lon;timestamp;P1;durP1;ratioP1;P2;durP2;ratioP2
50161;SDS011;36061;48.116;11.612;2023-04-16T00:00:00;1.90;;;1.67;;
50161;SDS011;36061;48.116;11.612;2023-04-16T00:02:36;2.67;;;1.87;;
50161;SDS011;36061;48.116;11.612;2023-04-16T00:05:03;2.70;;;2.07;;
50161;SDS011;36061;48.116;11.612;2023-04-16T00:07:31;2.20;;;1.60;;
50161;SDS011;36061;48.116;11.612;2023-04-16T00:09:58;2.13;;;1.77;;
50161;SDS011;36061;48.116;11.612;2023-04-16T00:12:25;3.57;;;2.33;;
50161;SDS011;36061;48.116;11.612;2023-04-16T00:14:54;3.47;;;2.50;;
50161;SDS011;36061;48.116;11.612;2023-04-16T00:17:21;2.00;;;1.90;;
50161;SDS011;36061;48.116;11.612;2023-04-16T00:19:48;3.43;;;2.40;;
50161;SDS011;36061;48.116;11.612;2023-04-16T00:22:15;3.37;;;2.50;;
50161;SDS011;36061;48.116;11.612;2023-04-16T00:24:43;4.50;;;2.77;;
50161;SDS011;36061;48.116;11.612;2023-04-16T00:27:10;3.33;;;2.57;;
50161;SDS011;36061;48.116;11.612;2023-04-16T00:29:37;5.33;;;2.50;;
50161;SDS011;36061;48.116;11.612;2023-04-16T00:32:07;3.30;;;2.67;;
50161;SDS011;36061;48.116;11.612;2023-04-16T00:34:34;3.60;;;2.73;;
50161;SDS011;36061;48.116;11.612;2023-04-16T00:37:01;3.30;;;2.77;;
50161;SDS011;36061;48.116;11.612;2023-04-16T00:39:29;3.77;;;2.63;;
50161;SDS011;36061;48.116;11.612;2023-04-16T00:41:56;4.90;;;2.47;;
50161;SDS011;36061;48.116;11.612;2023-04-16T00:44:23;4.70;;;2.73;;
50161;SDS011;36061;48.116;11.612;2023-04-16T00:46:52;4.57;;;2.67;;
50161;SDS011;36061;48.116;11.612;2023-04-16T00:49:21;3.67;;;2.90;;
50161;SDS011;36061;48.116;11.612;2023-04-16T00:51:48;3.63;;;3.03;;
50161;SDS011;36061;48.116;11.612;2023-04-16T00:54:16;4.20;;;2.73;;
50161;SDS011;36061;48.116;11.612;2023-04-16T00:56:44;3.80;;;2.93;;
50161;SDS011;36061;48.116;11.612;2023-04-16T00:59:14;3.17;;;2.83;;
50161;SDS011;36061;48.116;11.612;2023-04-16T01:01:41;3.07;;;2.60;;
50161;SDS011;36061;48.116;11.612;2023-04-16T01:04:08;4.97;;;2.90;;
50161;SDS011;36061;48.116;11.612;2023-04-16T01:06:38;3.40;;;3.07;;
50161;SDS011;36061;48.116;11.612;2023-04-16T01:09:05;3.50;;;2.30;;
50161;SDS011;36061;48.116;11.612;2023-04-16T01:11:32;4.10;;;2.60;;
50161;SDS011;36061;48.116;11.612;2023-04-16T01:14:01;3.87;;;2.77;;
50161;SDS011;36061;48.116;11.612;2023-04-16T01:16:28;2.93;;;2.60;;
50161;SDS011;36061;48.116;11.612;2023-04-16T01:18:56;3.93;;;2.80;;
50161;SDS011;36061;48.116;11.612;2023-04-16T01:21:24;3.43;;;2.50;;
50161;SDS011;36061;48.116;11.612;2023-04-16T01:23:52;4.17;;;2.70;;
50161;SDS011;36061;48.116;11.612;2023-04-16T01:26:19;3.43;;;2.60;;
50161;SDS011;36061;48.116;11.612;2023-04-16T01:28:46;3.17;;;2.53;;
50161;SDS011;36061;48.116;11.612;2023-04-16T01:31:13;3.20;;;2.90;;
50161;SDS011;36061;48.116;11.612;2023-04-16T01:33:54;3.87;;;3.00;;
50161;SDS011;36061;48.116;11.612;2023-04-16T01:36:21;5.80;;;3.30;;
50161;SDS011;36061;48.116;11.612;2023-04-16T01:38:50;3.37;;;2.97;;
50161;SDS011;36061;48.116;11.612;2023-04-16T01:41:17;3.83;;;2.70;;
50161;SDS011;36061;48.116;11.612;2023-04-16T01:43:45;4.13;;;2.53;;
50161;SDS011;36061;48.116;11.612;2023-04-16T01:46:13;3.10;;;2.60;;
50161;SDS011;36061;48.116;11.612;2023-04-16T01:48:43;3.87;;;3.10;;
50161;SDS011;36061;48.116;11.612;2023-04-16T01:51:10;3.27;;;2.60;;
50161;SDS011;36061;48.116;11.612;2023-04-16T01:53:38;4.90;;;3.40;;
50161;SDS011;36061;48.116;11.612;2023-04-16T01:56:06;3.47;;;2.80;;
50161;SDS011;36061;48.116;11.612;2023-04-16T01:58:34;4.20;;;3.30;;
50161;SDS011;36061;48.116;11.612;2023-04-16T02:01:02;3.77;;;2.50;;
50161;SDS011;36061;48.116;11.612;2023-04-16T02:03:30;3.37;;;2.73;;
50161;SDS011;36061;48.116;11.612;2023-04-16T02:05:57;3.80;;;2.97;;
50161;SDS011;36061;48.116;11.612;2023-04-16T02:08:27;3.73;;;2.70;;
50161;SDS011;36061;48.116;11.612;2023-04-16T02:10:55;4.13;;;3.27;;
50161;SDS011;36061;48.116;11.612;2023-04-16T02:13:25;2.80;;;2.40;;
50161;SDS011;36061;48.116;11.612;2023-04-16T02:15:52;3.97;;;2.80;;
50161;SDS011;36061;48.116;11.612;2023-04-16T02:18:34;4.50;;;3.30;;
50161;SDS011;36061;48.116;11.612;2023-04-16T02:21:01;4.87;;;2.90;;
50161;SDS011;36061;48.116;11.612;2023-04-16T02:23:30;3.87;;;3.10;;
50161;SDS011;36061;48.116;11.612;2023-04-16T02:25:58;4.57;;;3.23;;
50161;SDS011;36061;48.116;11.612;2023-04-16T02:28:28;3.83;;;2.60;;
50161;SDS011;36061;48.116;11.612;2023-04-16T02:30:55;8.03;;;2.90;;
50161;SDS011;36061;48.116;11.612;2023-04-16T02:33:25;4.17;;;2.70;;
50161;SDS011;36061;48.116;11.612;2023-04-16T02:35:59;3.73;;;2.70;;
50161;SDS011;36061;48.116;11.612;2023-04-16T02:38:27;3.30;;;2.60;;
50161;SDS011;36061;48.116;11.612;2023-04-16T02:40:54;3.63;;;2.80;;
50161;SDS011;36061;48.116;11.612;2023-04-16T02:43:21;3.13;;;2.67;;
50161;SDS011;36061;48.116;11.612;2023-04-16T02:45:50;3.80;;;3.20;;
50161;SDS011;36061;48.116;11.612;2023-04-16T02:48:17;4.53;;;2.83;;
50161;SDS011;36061;48.116;11.612;2023-04-16T02:50:44;3.63;;;2.97;;
50161;SDS011;36061;48.116;11.612;2023-04-16T02:53:11;3.67;;;2.80;;
50161;SDS011;36061;48.116;11.612;2023-04-16T02:55:39;5.03;;;3.10;;
50161;SDS011;36061;48.116;11.612;2023-04-16T02:58:06;3.53;;;2.90;;
50161;SDS011;36061;48.116;11.612;2023-04-16T03:00:33;4.33;;;2.97;;
50161;SDS011;36061;48.116;11.612;2023-04-16T03:03:02;4.40;;;3.30;;
50161;SDS011;36061;48.116;11.612;2023-04-16T03:05:30;4.70;;;3.40;;
50161;SDS011;36061;48.116;11.612;2023-04-16T03:07:57;3.97;;;2.90;;
50161;SDS011;36061;48.116;11.612;2023-04-16T03:10:24;4.00;;;3.07;;
50161;SDS011;36061;48.116;11.612;2023-04-16T03:12:52;3.37;;;2.77;;
50161;SDS011;36061;48.116;11.612;2023-04-16T03:15:19;4.37;;;3.27;;
50161;SDS011;36061;48.116;11.612;2023-04-16T03:17:46;3.80;;;2.70;;
50161;SDS011;36061;48.116;11.612;2023-04-16T03:20:15;3.73;;;2.87;;
50161;SDS011;36061;48.116;11.612;2023-04-16T03:22:44;3.47;;;2.53;;
50161;SDS011;36061;48.116;11.612;2023-04-16T03:25:11;3.03;;;2.50;;
50161;SDS011;36061;48.116;11.612;2023-04-16T03:27:39;2.97;;;2.40;;
50161;SDS011;36061;48.116;11.612;2023-04-16T03:30:06;3.50;;;2.50;;
50161;SDS011;36061;48.116;11.612;2023-04-16T03:32:36;2.43;;;2.23;;
50161;SDS011;36061;48.116;11.612;2023-04-16T03:35:04;4.67;;;2.77;;
50161;SDS011;36061;48.116;11.612;2023-04-16T03:37:33;3.00;;;2.50;;
50161;SDS011;36061;48.116;11.612;2023-04-16T03:40:01;4.63;;;2.97;;
50161;SDS011;36061;48.116;11.612;2023-04-16T03:42:30;3.03;;;2.73;;
50161;SDS011;36061;48.116;11.612;2023-04-16T03:44:57;3.03;;;2.73;;
50161;SDS011;36061;48.116;11.612;2023-04-16T03:47:25;3.27;;;2.60;;
50161;SDS011;36061;48.116;11.612;2023-04-16T03:49:56;3.43;;;2.33;;
50161;SDS011;36061;48.116;11.612;2023-04-16T03:52:23;3.23;;;2.60;;
50161;SDS011;36061;48.116;11.612;2023-04-16T03:54:53;2.40;;;2.20;;
50161;SDS011;36061;48.116;11.612;2023-04-16T03:57:26;2.60;;;2.23;;
50161;SDS011;36061;48.116;11.612;2023-04-16T03:59:58;3.07;;;2.20;;
50161;SDS011;36061;48.116;11.612;2023-04-16T04:02:29;3.30;;;2.60;;
50161;SDS011;36061;48.116;11.612;2023-04-16T04:04:56;3.07;;;2.40;;
50161;SDS011;36061;48.116;11.612;2023-04-16T04:07:23;2.33;;;2.07;;
50161;SDS011;36061;48.116;11.612;2023-04-16T04:09:51;2.97;;;2.30;;
50161;SDS011;36061;48.116;11.612;2023-04-16T04:12:20;3.07;;;2.40;;
50161;SDS011;36061;48.116;11.612;2023-04-16T04:14:47;2.80;;;2.37;;
50161;SDS011;36061;48.116;11.612;2023-04-16T04:17:14;3.47;;;2.50;;
50161;SDS011;36061;48.116;11.612;2023-04-16T04:19:42;2.73;;;2.13;;
50161;SDS011;36061;48.116;11.612;2023-04-16T04:22:09;2.93;;;2.43;;
50161;SDS011;36061;48.116;11.612;2023-04-16T04:24:37;4.33;;;2.73;;
50161;SDS011;36061;48.116;11.612;2023-04-16T04:27:05;2.77;;;2.17;;
50161;SDS011;36061;48.116;11.612;2023-04-16T04:29:33;4.00;;;2.40;;
50161;SDS011;36061;48.116;11.612;2023-04-16T04:32:00;2.60;;;2.00;;
50161;SDS011;36061;48.116;11.612;2023-04-16T04:34:27;2.60;;;2.37;;
50161;SDS011;36061;48.116;11.612;2023-04-16T04:36:56;2.90;;;2.50;;
50161;SDS011;36061;48.116;11.612;2023-04-16T04:39:25;2.53;;;2.30;;
50161;SDS011;36061;48.116;11.612;2023-04-16T04:41:52;3.97;;;2.47;;
50161;SDS011;36061;48.116;11.612;2023-04-16T04:44:21;2.97;;;2.30;;
50161;SDS011;36061;48.116;11.612;2023-04-16T04:46:48;2.83;;;2.27;;
50161;SDS011;36061;48.116;11.612;2023-04-16T04:49:15;2.90;;;2.60;;
50161;SDS011;36061;48.116;11.612;2023-04-16T04:51:42;2.97;;;2.20;;
50161;SDS011;36061;48.116;11.612;2023-04-16T04:54:10;3.30;;;2.47;;
50161;SDS011;36061;48.116;11.612;2023-04-16T04:56:37;4.07;;;2.67;;
50161;SDS011;36061;48.116;11.612;2023-04-16T04:59:04;2.90;;;2.40;;
50161;SDS011;36061;48.116;11.612;2023-04-16T05:01:33;3.37;;;2.90;;
50161;SDS011;36061;48.116;11.612;2023-04-16T05:04:01;2.93;;;2.50;;
50161;SDS011;36061;48.116;11.612;2023-04-16T05:06:28;3.23;;;2.40;;
50161;SDS011;36061;48.116;11.612;2023-04-16T05:08:55;3.13;;;2.60;;
50161;SDS011;36061;48.116;11.612;2023-04-16T05:11:22;3.23;;;2.63;;
50161;SDS011;36061;48.116;11.612;2023-04-16T05:13:50;2.70;;;2.07;;
50161;SDS011;36061;48.116;11.612;2023-04-16T05:16:17;2.97;;;2.67;;
50161;SDS011;36061;48.116;11.612;2023-04-16T05:18:45;3.50;;;2.20;;
50161;SDS011;36061;48.116;11.612;2023-04-16T05:21:13;2.63;;;2.00;;
50161;SDS011;36061;48.116;11.612;2023-04-16T05:23:40;2.50;;;2.10;;
50161;SDS011;36061;48.116;11.612;2023-04-16T05:26:07;2.97;;;2.20;;
50161;SDS011;36061;48.116;11.612;2023-04-16T05:28:34;2.73;;;2.43;;
50161;SDS011;36061;48.116;11.612;2023-04-16T05:31:01;2.40;;;2.20;;
50161;SDS011;36061;48.116;11.612;2023-04-16T05:33:28;2.60;;;2.30;;
50161;SDS011;36061;48.116;11.612;2023-04-16T05:35:57;2.87;;;2.57;;
50161;SDS011;36061;48.116;11.612;2023-04-16T05:38:24;2.17;;;1.97;;
50161;SDS011;36061;48.116;11.612;2023-04-16T05:40:51;2.53;;;1.90;;
50161;SDS011;36061;48.116;11.612;2023-04-16T05:43:18;1.57;;;1.47;;
50161;SDS011;36061;48.116;11.612;2023-04-16T05:45:46;2.20;;;2.00;;
50161;SDS011;36061;48.116;11.612;2023-04-16T05:48:13;2.60;;;1.97;;
50161;SDS011;36061;48.116;11.612;2023-04-16T05:50:40;2.13;;;1.83;;
50161;SDS011;36061;48.116;11.612;2023-04-16T05:53:08;1.53;;;1.43;;
50161;SDS011;36061;48.116;11.612;2023-04-16T05:55:38;2.33;;;2.10;;
50161;SDS011;36061;48.116;11.612;2023-04-16T05:58:05;2.10;;;1.80;;
50161;SDS011;36061;48.116;11.612;2023-04-16T06:00:32;1.60;;;1.33;;
50161;SDS011;36061;48.116;11.612;2023-04-16T06:03:00;2.13;;;1.50;;
50161;SDS011;36061;48.116;11.612;2023-04-16T06:05:28;1.50;;;1.40;;
50161;SDS011;36061;48.116;11.612;2023-04-16T06:07:55;3.97;;;1.97;;
50161;SDS011;36061;48.116;11.612;2023-04-16T06:10:24;1.67;;;1.30;;
50161;SDS011;36061;48.116;11.612;2023-04-16T06:12:51;2.03;;;1.57;;
50161;SDS011;36061;48.116;11.612;2023-04-16T06:15:18;1.50;;;1.33;;
50161;SDS011;36061;48.116;11.612;2023-04-16T06:17:45;1.20;;;1.10;;
50161;SDS011;36061;48.116;11.612;2023-04-16T06:20:13;3.97;;;1.30;;
50161;SDS011;36061;48.116;11.612;2023-04-16T06:22:40;0.93;;;0.90;;
50161;SDS011;36061;48.116;11.612;2023-04-16T06:25:08;1.13;;;1.00;;
50161;SDS011;36061;48.116;11.612;2023-04-16T06:27:36;0.87;;;0.87;;
50161;SDS011;36061;48.116;11.612;2023-04-16T06:30:04;0.90;;;0.90;;
50161;SDS011;36061;48.116;11.612;2023-04-16T06:32:36;1.13;;;0.90;;
50161;SDS011;36061;48.116;11.612;2023-04-16T06:35:04;0.70;;;0.70;;
50161;SDS011;36061;48.116;11.612;2023-04-16T06:37:32;1.00;;;1.00;;
50161;SDS011;36061;48.116;11.612;2023-04-16T06:39:59;0.57;;;0.57;;
50161;SDS011;36061;48.116;11.612;2023-04-16T06:42:27;0.90;;;0.90;;
50161;SDS011;36061;48.116;11.612;2023-04-16T06:44:55;0.90;;;0.90;;
50161;SDS011;36061;48.116;11.612;2023-04-16T06:47:23;0.73;;;0.73;;
50161;SDS011;36061;48.116;11.612;2023-04-16T06:49:51;1.10;;;1.00;;
50161;SDS011;36061;48.116;11.612;2023-04-16T06:52:18;0.50;;;0.50;;
50161;SDS011;36061;48.116;11.612;2023-04-16T06:54:46;0.73;;;0.50;;
50161;SDS011;36061;48.116;11.612;2023-04-16T06:57:13;0.50;;;0.50;;
50161;SDS011;36061;48.116;11.612;2023-04-16T06:59:41;0.50;;;0.50;;
50161;SDS011;36061;48.116;11.612;2023-04-16T07:02:10;0.70;;;0.70;;
50161;SDS011;36061;48.116;11.612;2023-04-16T07:04:37;0.53;;;0.50;;
50161;SDS011;36061;48.116;11.612;2023-04-16T07:07:04;0.60;;;0.60;;
50161;SDS011;36061;48.116;11.612;2023-04-16T07:09:31;0.43;;;0.40;;
50161;SDS011;36061;48.116;11.612;2023-04-16T07:11:58;0.70;;;0.70;;
50161;SDS011;36061;48.116;11.612;2023-04-16T07:14:26;0.70;;;0.60;;
50161;SDS011;36061;48.116;11.612;2023-04-16T07:16:53;0.90;;;0.87;;
50161;SDS011;36061;48.116;11.612;2023-04-16T07:19:22;0.70;;;0.70;;
50161;SDS011;36061;48.116;11.612;2023-04-16T07:21:49;0.70;;;0.60;;
50161;SDS011;36061;48.116;11.612;2023-04-16T07:24:16;0.80;;;0.80;;
50161;SDS011;36061;48.116;11.612;2023-04-16T07:26:43;0.63;;;0.63;;
50161;SDS011;36061;48.116;11.612;2023-04-16T07:29:10;0.60;;;0.60;;
50161;SDS011;36061;48.116;11.612;2023-04-16T07:31:38;0.90;;;0.60;;
50161;SDS011;36061;48.116;11.612;2023-04-16T07:34:05;0.80;;;0.50;;
50161;SDS011;36061;48.116;11.612;2023-04-16T07:36:33;0.60;;;0.60;;
50161;SDS011;36061;48.116;11.612;2023-04-16T07:39:01;1.40;;;1.10;;
50161;SDS011;36061;48.116;11.612;2023-04-16T07:41:30;1.30;;;0.80;;
50161;SDS011;36061;48.116;11.612;2023-04-16T07:43:57;0.90;;;0.90;;
50161;SDS011;36061;48.116;11.612;2023-04-16T07:46:24;0.60;;;0.60;;
50161;SDS011;36061;48.116;11.612;2023-04-16T07:48:52;0.87;;;0.87;;
50161;SDS011;36061;48.116;11.612;2023-04-16T07:51:19;1.23;;;0.77;;
50161;SDS011;36061;48.116;11.612;2023-04-16T07:53:47;1.57;;;0.73;;
50161;SDS011;36061;48.116;11.612;2023-04-16T07:56:15;1.27;;;0.90;;
50161;SDS011;36061;48.116;11.612;2023-04-16T07:58:42;4.20;;;1.20;;
50161;SDS011;36061;48.116;11.612;2023-04-16T08:01:09;3.30;;;1.20;;
50161;SDS011;36061;48.116;11.612;2023-04-16T08:03:38;2.43;;;1.17;;
50161;SDS011;36061;48.116;11.612;2023-04-16T08:06:05;0.70;;;0.60;;
50161;SDS011;36061;48.116;11.612;2023-04-16T08:08:32;0.93;;;0.60;;
50161;SDS011;36061;48.116;11.612;2023-04-16T08:11:00;0.67;;;0.67;;
50161;SDS011;36061;48.116;11.612;2023-04-16T08:13:28;5.13;;;1.67;;
50161;SDS011;36061;48.116;11.612;2023-04-16T08:15:55;8.50;;;3.10;;
50161;SDS011;36061;48.116;11.612;2023-04-16T08:18:22;5.93;;;2.80;;
50161;SDS011;36061;48.116;11.612;2023-04-16T08:20:49;2.80;;;1.47;;
50161;SDS011;36061;48.116;11.612;2023-04-16T08:23:17;1.33;;;0.70;;
50161;SDS011;36061;48.116;11.612;2023-04-16T08:25:44;0.50;;;0.50;;
50161;SDS011;36061;48.116;11.612;2023-04-16T08:28:13;0.63;;;0.57;;
50161;SDS011;36061;48.116;11.612;2023-04-16T08:30:40;0.70;;;0.70;;
50161;SDS011;36061;48.116;11.612;2023-04-16T08:33:07;1.03;;;0.93;;
50161;SDS011;36061;48.116;11.612;2023-04-16T08:35:34;1.10;;;0.70;;
50161;SDS011;36061;48.116;11.612;2023-04-16T08:38:02;0.50;;;0.50;;
50161;SDS011;36061;48.116;11.612;2023-04-16T08:40:29;0.40;;;0.40;;
50161;SDS011;36061;48.116;11.612;2023-04-16T08:42:58;0.60;;;0.57;;
50161;SDS011;36061;48.116;11.612;2023-04-16T08:45:28;0.43;;;0.40;;
50161;SDS011;36061;48.116;11.612;2023-04-16T08:47:57;0.50;;;0.50;;
50161;SDS011;36061;48.116;11.612;2023-04-16T08:50:25;0.40;;;0.40;;
50161;SDS011;36061;48.116;11.612;2023-04-16T08:52:55;0.77;;;0.50;;
50161;SDS011;36061;48.116;11.612;2023-04-16T08:55:25;0.97;;;0.97;;
50161;SDS011;36061;48.116;11.612;2023-04-16T08:58:00;0.80;;;0.60;;
50161;SDS011;36061;48.116;11.612;2023-04-16T09:00:31;1.13;;;0.40;;
50161;SDS011;36061;48.116;11.612;2023-04-16T09:03:00;0.43;;;0.43;;
50161;SDS011;36061;48.116;11.612;2023-04-16T09:05:28;0.70;;;0.70;;
50161;SDS011;36061;48.116;11.612;2023-04-16T09:07:56;1.23;;;0.50;;
50161;SDS011;36061;48.116;11.612;2023-04-16T09:10:23;0.40;;;0.40;;
50161;SDS011;36061;48.116;11.612;2023-04-16T09:12:54;1.47;;;0.47;;
50161;SDS011;36061;48.116;11.612;2023-04-16T09:15:21;0.53;;;0.53;;
50161;SDS011;36061;48.116;11.612;2023-04-16T09:17:51;0.53;;;0.53;;
50161;SDS011;36061;48.116;11.612;2023-04-16T09:20:18;0.30;;;0.30;;
50161;SDS011;36061;48.116;11.612;2023-04-16T09:22:46;0.43;;;0.43;;
50161;SDS011;36061;48.116;11.612;2023-04-16T09:25:13;1.13;;;0.63;;
50161;SDS011;36061;48.116;11.612;2023-04-16T09:27:40;0.40;;;0.40;;
50161;SDS011;36061;48.116;11.612;2023-04-16T09:30:19;0.87;;;0.60;;
50161;SDS011;36061;48.116;11.612;2023-04-16T09:32:48;0.40;;;0.40;;
50161;SDS011;36061;48.116;11.612;2023-04-16T09:35:17;0.40;;;0.40;;
50161;SDS011;36061;48.116;11.612;2023-04-16T09:37:53;0.40;;;0.40;;
50161;SDS011;36061;48.116;11.612;2023-04-16T09:40:25;0.40;;;0.40;;
50161;SDS011;36061;48.116;11.612;2023-04-16T09:42:55;0.50;;;0.50;;
50161;SDS011;36061;48.116;11.612;2023-04-16T09:45:24;0.50;;;0.50;;
50161;SDS011;36061;48.116;11.612;2023-04-16T09:48:01;0.50;;;0.50;;
50161;SDS011;36061;48.116;11.612;2023-04-16T09:50:31;0.33;;;0.30;;
50161;SDS011;36061;48.116;11.612;2023-04-16T09:52:59;0.40;;;0.40;;
50161;SDS011;36061;48.116;11.612;2023-04-16T09:55:28;0.50;;;0.50;;
50161;SDS011;36061;48.116;11.612;2023-04-16T09:57:58;0.67;;;0.57;;
50161;SDS011;36061;48.116;11.612;2023-04-16T10:00:26;0.60;;;0.60;;
50161;SDS011;36061;48.116;11.612;2023-04-16T10:03:02;0.50;;;0.50;;
50161;SDS011;36061;48.116;11.612;2023-04-16T10:05:31;0.30;;;0.30;;
50161;SDS011;36061;48.116;11.612;2023-04-16T10:07:59;2.10;;;0.40;;
50161;SDS011;36061;48.116;11.612;2023-04-16T10:10:26;1.30;;;0.47;;
50161;SDS011;36061;48.116;11.612;2023-04-16T10:12:54;0.70;;;0.70;;
50161;SDS011;36061;48.116;11.612;2023-04-16T10:15:22;1.60;;;1.30;;
50161;SDS011;36061;48.116;11.612;2023-04-16T10:17:49;1.37;;;0.97;;
50161;SDS011;36061;48.116;11.612;2023-04-16T10:20:17;0.80;;;0.80;;
50161;SDS011;36061;48.116;11.612;2023-04-16T10:22:46;2.73;;;0.67;;
50161;SDS011;36061;48.116;11.612;2023-04-16T10:25:14;0.50;;;0.50;;
50161;SDS011;36061;48.116;11.612;2023-04-16T10:27:42;0.73;;;0.47;;
50161;SDS011;36061;48.116;11.612;2023-04-16T10:30:10;0.30;;;0.30;;
50161;SDS011;36061;48.116;11.612;2023-04-16T10:32:40;0.50;;;0.40;;
50161;SDS011;36061;48.116;11.612;2023-04-16T10:35:09;0.60;;;0.60;;
50161;SDS011;36061;48.116;11.612;2023-04-16T10:37:41;3.80;;;0.50;;
50161;SDS011;36061;48.116;11.612;2023-04-16T10:40:23;1.03;;;0.63;;
50161;SDS011;36061;48.116;11.612;2023-04-16T10:42:52;1.17;;;0.70;;
50161;SDS011;36061;48.116;11.612;2023-04-16T10:45:25;1.43;;;0.60;;
50161;SDS011;36061;48.116;11.612;2023-04-16T10:47:54;0.90;;;0.90;;
50161;SDS011;36061;48.116;11.612;2023-04-16T10:50:22;0.43;;;0.43;;
50161;SDS011;36061;48.116;11.612;2023-04-16T10:53:02;1.60;;;1.03;;
50161;SDS011;36061;48.116;11.612;2023-04-16T10:55:56;0.67;;;0.67;;
50161;SDS011;36061;48.116;11.612;2023-04-16T10:58:38;1.17;;;0.50;;
50161;SDS011;36061;48.116;11.612;2023-04-16T11:01:05;0.40;;;0.40;;
50161;SDS011;36061;48.116;11.612;2023-04-16T11:03:34;0.57;;;0.57;;
50161;SDS011;36061;48.116;11.612;2023-04-16T11:06:14;0.53;;;0.53;;
50161;SDS011;36061;48.116;11.612;2023-04-16T11:08:43;0.83;;;0.67;;
50161;SDS011;36061;48.116;11.612;2023-04-16T11:11:13;0.57;;;0.50;;
50161;SDS011;36061;48.116;11.612;2023-04-16T11:13:41;1.33;;;0.80;;
50161;SDS011;36061;48.116;11.612;2023-04-16T11:16:10;0.80;;;0.80;;
50161;SDS011;36061;48.116;11.612;2023-04-16T11:18:38;1.10;;;0.70;;
50161;SDS011;36061;48.116;11.612;2023-04-16T11:21:07;0.90;;;0.70;;
50161;SDS011;36061;48.116;11.612;2023-04-16T11:23:48;2.77;;;0.90;;
50161;SDS011;36061;48.116;11.612;2023-04-16T11:26:24;1.23;;;0.70;;
50161;SDS011;36061;48.116;11.612;2023-04-16T11:28:52;0.40;;;0.40;;
50161;SDS011;36061;48.116;11.612;2023-04-16T11:31:21;0.53;;;0.53;;
50161;SDS011;36061;48.116;11.612;2023-04-16T11:33:48;1.47;;;0.90;;
50161;SDS011;36061;48.116;11.612;2023-04-16T11:36:16;1.00;;;0.87;;
50161;SDS011;36061;48.116;11.612;2023-04-16T11:38:44;1.57;;;0.80;;
50161;SDS011;36061;48.116;11.612;2023-04-16T11:41:18;0.57;;;0.57;;
50161;SDS011;36061;48.116;11.612;2023-04-16T11:43:47;3.07;;;0.63;;
50161;SDS011;36061;48.116;11.612;2023-04-16T11:46:14;3.57;;;1.60;;
50161;SDS011;36061;48.116;11.612;2023-04-16T11:48:45;1.60;;;0.77;;
50161;SDS011;36061;48.116;11.612;2023-04-16T11:51:13;6.37;;;1.00;;
50161;SDS011;36061;48.116;11.612;2023-04-16T11:53:44;3.40;;;0.97;;
50161;SDS011;36061;48.116;11.612;2023-04-16T11:56:12;1.17;;;0.80;;
50161;SDS011;36061;48.116;11.612;2023-04-16T11:58:40;1.97;;;1.30;;
50161;SDS011;36061;48.116;11.612;2023-04-16T12:01:08;1.57;;;1.03;;
50161;SDS011;36061;48.116;11.612;2023-04-16T12:03:36;1.00;;;0.90;;
50161;SDS011;36061;48.116;11.612;2023-04-16T12:06:07;0.70;;;0.70;;
50161;SDS011;36061;48.116;11.612;2023-04-16T12:08:35;0.60;;;0.60;;
50161;SDS011;36061;48.116;11.612;2023-04-16T12:11:02;2.00;;;0.87;;
50161;SDS011;36061;48.116;11.612;2023-04-16T12:13:29;1.00;;;0.80;;
50161;SDS011;36061;48.116;11.612;2023-04-16T12:16:11;0.97;;;0.50;;
50161;SDS011;36061;48.116;11.612;2023-04-16T12:21:37;2.00;;;1.00;;
50161;SDS011;36061;48.116;11.612;2023-04-16T12:24:05;2.50;;;1.10;;
50161;SDS011;36061;48.116;11.612;2023-04-16T12:26:37;1.00;;;0.90;;
50161;SDS011;36061;48.116;11.612;2023-04-16T12:29:18;1.80;;;0.70;;
50161;SDS011;36061;48.116;11.612;2023-04-16T12:31:48;3.23;;;2.10;;
50161;SDS011;36061;48.116;11.612;2023-04-16T12:34:17;3.43;;;1.17;;
50161;SDS011;36061;48.116;11.612;2023-04-16T12:36:45;1.83;;;1.03;;
50161;SDS011;36061;48.116;11.612;2023-04-16T12:39:13;0.80;;;0.73;;
50161;SDS011;36061;48.116;11.612;2023-04-16T12:41:42;0.93;;;0.90;;
50161;SDS011;36061;48.116;11.612;2023-04-16T12:44:11;4.67;;;1.87;;
50161;SDS011;36061;48.116;11.612;2023-04-16T12:46:42;2.70;;;1.20;;
50161;SDS011;36061;48.116;11.612;2023-04-16T12:49:11;5.13;;;1.00;;
50161;SDS011;36061;48.116;11.612;2023-04-16T12:51:39;2.90;;;1.10;;
50161;SDS011;36061;48.116;11.612;2023-04-16T12:54:06;0.80;;;0.60;;
50161;SDS011;36061;48.116;11.612;2023-04-16T12:56:33;2.30;;;1.20;;
50161;SDS011;36061;48.116;11.612;2023-04-16T12:59:01;0.77;;;0.67;;
50161;SDS011;36061;48.116;11.612;2023-04-16T13:01:28;1.27;;;1.07;;
50161;SDS011;36061;48.116;11.612;2023-04-16T13:03:55;2.17;;;0.90;;
50161;SDS011;36061;48.116;11.612;2023-04-16T13:06:24;1.30;;;0.90;;
50161;SDS011;36061;48.116;11.612;2023-04-16T13:08:51;2.00;;;0.60;;
50161;SDS011;36061;48.116;11.612;2023-04-16T13:11:18;0.67;;;0.67;;
50161;SDS011;36061;48.116;11.612;2023-04-16T13:13:46;1.50;;;0.53;;
50161;SDS011;36061;48.116;11.612;2023-04-16T13:16:13;0.53;;;0.53;;
50161;SDS011;36061;48.116;11.612;2023-04-16T13:18:40;0.67;;;0.67;;
50161;SDS011;36061;48.116;11.612;2023-04-16T13:21:08;1.57;;;0.97;;
50161;SDS011;36061;48.116;11.612;2023-04-16T13:23:36;1.90;;;1.70;;
50161;SDS011;36061;48.116;11.612;2023-04-16T13:26:03;1.30;;;1.13;;
50161;SDS011;36061;48.116;11.612;2023-04-16T13:28:31;1.00;;;0.90;;
50161;SDS011;36061;48.116;11.612;2023-04-16T13:30:58;2.37;;;0.73;;
50161;SDS011;36061;48.116;11.612;2023-04-16T13:33:25;1.00;;;0.60;;
50161;SDS011;36061;48.116;11.612;2023-04-16T13:35:52;0.63;;;0.63;;
50161;SDS011;36061;48.116;11.612;2023-04-16T13:38:20;0.93;;;0.70;;
50161;SDS011;36061;48.116;11.612;2023-04-16T13:40:48;0.80;;;0.77;;
50161;SDS011;36061;48.116;11.612;2023-04-16T13:43:15;0.60;;;0.60;;
50161;SDS011;36061;48.116;11.612;2023-04-16T13:45:43;0.57;;;0.57;;
50161;SDS011;36061;48.116;11.612;2023-04-16T13:48:10;0.60;;;0.60;;
50161;SDS011;36061;48.116;11.612;2023-04-16T13:50:37;1.07;;;0.70;;
50161;SDS011;36061;48.116;11.612;2023-04-16T13:53:05;3.40;;;0.70;;
50161;SDS011;36061;48.116;11.612;2023-04-16T13:55:32;0.80;;;0.73;;
50161;SDS011;36061;48.116;11.612;2023-04-16T13:58:01;1.10;;;0.90;;
50161;SDS011;36061;48.116;11.612;2023-04-16T14:00:28;2.13;;;0.80;;
50161;SDS011;36061;48.116;11.612;2023-04-16T14:02:56;0.70;;;0.70;;
50161;SDS011;36061;48.116;11.612;2023-04-16T14:05:23;2.43;;;0.80;;
50161;SDS011;36061;48.116;11.612;2023-04-16T14:07:50;1.20;;;0.80;;
50161;SDS011;36061;48.116;11.612;2023-04-16T14:10:17;1.43;;;0.90;;
50161;SDS011;36061;48.116;11.612;2023-04-16T14:12:44;1.00;;;0.80;;
50161;SDS011;36061;48.116;11.612;2023-04-16T14:15:13;0.47;;;0.47;;
50161;SDS011;36061;48.116;11.612;2023-04-16T14:17:41;1.20;;;0.60;;
50161;SDS011;36061;48.116;11.612;2023-04-16T14:20:09;0.80;;;0.80;;
50161;SDS011;36061;48.116;11.612;2023-04-16T14:22:37;0.70;;;0.70;;
50161;SDS011;36061;48.116;11.612;2023-04-16T14:25:05;1.10;;;1.00;;
50161;SDS011;36061;48.116;11.612;2023-04-16T14:27:32;1.43;;;1.20;;
50161;SDS011;36061;48.116;11.612;2023-04-16T14:30:00;1.10;;;1.00;;
50161;SDS011;36061;48.116;11.612;2023-04-16T14:32:28;1.63;;;0.97;;
50161;SDS011;36061;48.116;11.612;2023-04-16T14:34:55;1.97;;;1.30;;
50161;SDS011;36061;48.116;11.612;2023-04-16T14:37:23;2.17;;;1.50;;
50161;SDS011;36061;48.116;11.612;2023-04-16T14:39:50;2.37;;;1.47;;
50161;SDS011;36061;48.116;11.612;2023-04-16T14:42:18;2.47;;;1.30;;